KMKC

Charles B Wheeler Downtown Airport

Kansas City, Missouri, USA
KMKC 132337Z 1400/1424 35013KT P6SM OVC011 TEMPO 1403/1406 OVC009 FM140600 01011KT 6SM BR OVC009 FM141300 01009KT P6SM SCT012 FM141500 01010KT P6SM SKC
Issued Valid From Valid To
Dec-13 @ 23:37 UTC
(5 hours ago)
Dec-14 @ 00:00 UTC
(4 hours ago)
Dec-15 @ 00:00 UTC
(in 20 hours)
Dec-14 @ 00:00 to Dec-14 @ 06:00
KMKC 132337Z 1400/1424 35013KT P6SM OVC011
Wind Visibility Clouds
350° at 13 knots Greater than 6 miles
  • Overcast at 1,100' AGL
Temporary Dec-14 @ 03:00 to Dec-14 @ 06:00
TEMPO 1403/1406 OVC009
Clouds
  • Overcast at 900' AGL
From Dec-14 @ 06:00 to Dec-14 @ 13:00
FM140600 01011KT 6SM BR OVC009
Wind Visibility Clouds Conditions
10° at 11 knots 6 miles
  • Overcast at 900' AGL
  • Mist
From Dec-14 @ 13:00 to Dec-14 @ 15:00
FM141300 01009KT P6SM SCT012
Wind Visibility Clouds
10° at 9 knots Greater than 6 miles
  • Scattered at 1,200' AGL
From Dec-14 @ 15:00 to Dec-15 @ 00:00
FM141500 01010KT P6SM SKC
Wind Visibility Clouds
10° at 10 knots Greater than 6 miles
  • Clear skies
KMKC 132337Z 1400/1424 35013KT P6SM OVC011 TEMPO 1403/1406 OVC009 FM140600 01011KT 6SM BR OVC009 FM141300 01009KT P6SM SCT012 FM141500 01010KT P6SM SKC
Issued Dec-13 @ 23:37 UTC
(5 hours ago)
Valid From Dec-14 @ 00:00 UTC
(4 hours ago)
Valid To Dec-15 @ 00:00 UTC
(in 20 hours)
Dec-14 @ 00:00 - Dec-14 @ 06:00
Wind Visibility
350° at 13 knots Greater than 6 miles
Clouds
  • Overcast at 1,100' AGL
Temporary Dec-14 @ 03:00 - Dec-14 @ 06:00
Clouds
  • Overcast at 900' AGL
From Dec-14 @ 06:00 - Dec-14 @ 13:00
Wind Visibility
10° at 11 knots 6 miles
Clouds
  • Overcast at 900' AGL
Conditions
  • Mist
From Dec-14 @ 13:00 - Dec-14 @ 15:00
Wind Visibility
10° at 9 knots Greater than 6 miles
Clouds
  • Scattered at 1,200' AGL
From Dec-14 @ 15:00 - Dec-15 @ 00:00
Wind Visibility
10° at 10 knots Greater than 6 miles
Clouds
  • Clear skies